• Join FlightAware (Why Join?)
  • Login
  • US Flag 
12:32AM EDT


 

Airport Tracker/Info


-or-


 

Live Flight TrackerFlight Track Log ✈ EJA829P ✈ 03-Nov-2013 ✈ KBFI - KAPC

Flight Track Log - Related Links

Times and Time Zones

All times are in EST time to prevent confusion due to time zone crossing. See the EJA829P flight status page for this flight to view local times or setup timezone preferences in your user account.

Time Position Orientation Groundspeed Altitude Reporting Facility
EST Latitude Longitude Course Direction KTS MPH feet Rate Location/Type
03:55PM 47.5225 -122.2950 144° Southeast 169 194 800  Level Seattle Center
03:56PM 47.4919 -122.2625 144° Southeast 193 222 3,900 3,120 Climbing Seattle Center
03:57PM 47.4442 -122.2233 151° Southeast 222 255 5,900 1,440 Climbing Seattle Center
03:58PM 47.4158 -122.2372 198° South 207 238 6,000 600 Climbing Seattle Center
03:59PM 47.3892 -122.3181 244° Southwest 220 253 6,900 2,820 Climbing Seattle Center
04:00PM 47.3661 -122.4239 252° West 268 308 11,800 3,900 Climbing Seattle Center
04:01PM 47.3406 -122.5397 252° West 295 339 14,900 3,000 Climbing Seattle Center
04:02PM 47.3119 -122.6719 252° West 325 374 18,000 3,420 Climbing Seattle Center
04:03PM 47.2847 -122.7953 252° West 317 365 21,900 3,600 Climbing Seattle Center
04:04PM 47.2569 -122.9211 252° West 321 369 25,400 3,120 Climbing Seattle Center
04:05PM 47.1894 -123.0158 224° Southwest 361 415 28,300 2,760 Climbing Seattle Center
04:06PM 47.0775 -123.0144 180° South 397 457 31,100 2,040 Climbing Seattle Center
04:07PM 46.9631 -123.0119 179° South 410 472 32,600 900 Climbing Seattle Center
04:08PM 46.8422 -123.0094 179° South 431 496 33,000 180 Climbing Seattle Center
04:09PM 46.7156 -123.0053 179° South 454 522 33,000  Level Seattle Center
04:10PM 46.5900 -123.0053 180° South 454 522 33,000  Level Seattle Center
04:11PM 46.4628 -123.0022 179° South 456 525 33,000  Level Seattle Center
04:12PM 46.3108 -122.9992 179° South 456 525 33,000  Level Seattle Center
04:13PM 46.1839 -122.9969 179° South 456 525 33,000  Level Seattle Center
04:14PM 46.0783 -122.9956 179° South 455 524 33,000  Level Seattle Center
04:15PM 45.9517 -122.9933 179° South 453 521 33,000  Level Seattle Center
04:16PM 45.7994 -122.9906 179° South 455 524 33,000  Level Seattle Center
04:17PM 45.6717 -122.9850 178° South 458 527 33,000  Level Seattle Center
04:18PM 45.5444 -122.9831 179° South 456 525 33,000  Level Seattle Center
04:19PM 45.4169 -122.9778 178° South 459 528 33,000  Level Seattle Center
04:20PM 45.2872 -122.9750 179° South 461 531 33,000  Level Seattle Center
04:21PM 45.1589 -122.9717 179° South 460 529 33,000  Level Seattle Center
04:22PM 45.0317 -122.9689 179° South 455 524 33,000  Level Seattle Center
04:23PM 44.9047 -122.9658 179° South 454 522 33,000  Level Seattle Center
04:24PM 44.7783 -122.9614 179° South 450 518 33,000  Level Seattle Center
04:25PM 44.6525 -122.9581 179° South 450 518 33,000  Level Seattle Center
04:26PM 44.5269 -122.9550 179° South 450 518 33,000  Level Seattle Center
04:27PM 44.4025 -122.9522 179° South 447 514 33,000  Level Seattle Center
04:28PM 44.2817 -122.9494 179° South 443 510 33,000  Level Seattle Center
04:29PM 44.1575 -122.9472 179° South 441 507 33,000  Level Seattle Center
04:30PM 44.0344 -122.9450 179° South 439 505 33,000  Level Seattle Center
04:31PM 43.9117 -122.9419 179° South 438 504 33,000  Level Seattle Center
04:32PM 43.7647 -122.9381 179° South 439 505 33,000  Level Seattle Center
04:33PM 43.6453 -122.9358 179° South 432 497 33,000  Level Seattle Center
04:34PM 43.5250 -122.9331 179° South 431 496 33,000  Level Seattle Center
04:35PM 43.4050 -122.9308 179° South 432 497 33,000  Level Seattle Center
04:36PM 43.2844 -122.9278 179° South 433 498 33,000  Level Seattle Center
04:37PM 43.1650 -122.9261 179° South 429 494 33,000  Level Seattle Center
04:38PM 43.0450 -122.9233 179° South 431 496 33,000  Level Seattle Center
04:39PM 42.9253 -122.9197 179° South 431 496 33,000  Level Seattle Center
04:40PM 42.8058 -122.9189 180° South 429 494 33,000  Level Seattle Center
04:41PM 42.6728 -122.9150 179° South 427 491 33,000  Level Seattle Center
04:42PM 42.5539 -122.9139 180° South 428 493 33,000  Level Seattle Center
04:43PM 42.4361 -122.8986 175° South 427 491 33,000  Level Seattle Center
04:44PM 42.3164 -122.8642 168° South 439 505 33,000  Level Seattle Center
04:45PM 42.1983 -122.8275 167° South 439 505 33,000  Level Seattle Center
04:46PM 42.0781 -122.7942 168° South 442 509 33,000  Level Seattle Center
04:47PM 41.9608 -122.7603 168° South 436 502 33,000  Level Seattle Center
04:48PM 41.8481 -122.7289 168° South 419 482 33,000  Level Seattle Center
04:49PM 41.7339 -122.6961 168° South 423 487 33,000  Level Seattle Center
04:50PM 41.6228 -122.6642 168° South 414 476 33,000  Level Seattle Center
04:51PM 41.4872 -122.6244 168° South 416 479 33,000  Level Seattle Center
04:52PM 41.3886 -122.5972 168° South 411 473 33,000  Level Seattle Center
04:53PM 41.2992 -122.5847 174° South 403 464 33,000  Level Oakland Center
04:54PM 41.1897 -122.5742 176° South 396 456 33,000  Level Oakland Center
04:55PM 41.0803 -122.5642 176° South 395 455 33,000  Level Oakland Center
04:56PM 40.9706 -122.5508 175° South 395 455 33,000  Level Oakland Center
04:57PM 40.8594 -122.5389 175° South 399 459 33,000  Level Oakland Center
04:58PM 40.7272 -122.5261 176° South 397 457 33,000  Level Oakland Center
04:59PM 40.6164 -122.5150 176° South 400 460 33,000  Level Oakland Center
05:00PM 40.5064 -122.5044 176° South 399 459 33,000  Level Oakland Center
05:01PM 40.3964 -122.4931 175° South 398 458 33,000  Level Oakland Center
05:02PM 40.2861 -122.4828 176° South 400 460 33,000  Level Oakland Center
05:03PM 40.1767 -122.4719 176° South 401 461 33,000  Level Oakland Center
05:05PM 40.0464 -122.4597 176° South 403 464 33,000  Level Oakland Center
05:06PM 39.9367 -122.4492 176° South 401 461 33,000 -840 Level Oakland Center
05:07PM 39.8225 -122.4372 175° South 410 472 31,300 -1,860 Descending Oakland Center
05:08PM 39.6992 -122.4247 176° South 436 502 29,300 -2,100 Descending Oakland Center
05:09PM 39.5742 -122.4128 176° South 448 516 27,100 -2,400 Descending Oakland Center
05:10PM 39.4431 -122.4000 176° South 440 506 24,500 -2,520 Descending Oakland Center
05:11PM 39.3286 -122.3872 175° South 421 484 22,000 -2,460 Descending Oakland Center
05:12PM 39.2192 -122.3783 176° South 403 464 19,500 -2,400 Descending Oakland Center
05:13PM 39.1164 -122.3669 175° South 380 437 17,100 -2,160 Descending Oakland Center
05:14PM 39.0150 -122.3572 176° South 369 425 15,100 -2,220 Descending Oakland Center
05:15PM 38.8964 -122.3458 176° South 360 414 12,600 -2,220 Descending Oakland Center
05:16PM 38.8011 -122.3372 176° South 349 402 10,600 -1,980 Descending Oakland Center
05:17PM 38.7131 -122.3286 176° South 328 377 8,600 -1,680 Descending Oakland Center
05:18PM 38.6372 -122.3208 175° South 306 352 7,200 -840 Descending Oakland Center
05:19PM 38.5592 -122.3144 176° South 286 329 6,900 -300 Descending Oakland Center
05:20PM 38.4808 -122.3058 175° South 282 325 6,700 -1,500 Descending Oakland Center
05:21PM 38.3942 -122.2842 169° South 268 308 3,900 -1,980 Descending Oakland Center
05:22PM 38.3314 -122.2697 170° South 243 280 2,700 -1,200 Descending Oakland Center
05:23PM 38.2769 -122.2664 177° South 215 247 1,500 -1,140 Descending Oakland Center
05:24PM 38.2361 -122.2722 186° South 180 207 400 -1,080 Descending Oakland Center